sensor_id;sensor_type;location;lat;lon;timestamp;temperature;humidity
1091;DHT22;534;48.704;9.122;2023-02-13T04:03:04;4.90;80.40
1091;DHT22;534;48.704;9.122;2023-02-13T04:05:36;4.90;80.40
1091;DHT22;534;48.704;9.122;2023-02-13T04:08:05;4.90;80.20
1091;DHT22;534;48.704;9.122;2023-02-13T04:10:34;4.90;80.30
1091;DHT22;534;48.704;9.122;2023-02-13T04:13:08;4.80;80.60
1091;DHT22;534;48.704;9.122;2023-02-13T04:15:40;4.80;80.40
1091;DHT22;534;48.704;9.122;2023-02-13T04:18:10;4.80;80.20
1091;DHT22;534;48.704;9.122;2023-02-13T04:20:39;4.70;80.00
1091;DHT22;534;48.704;9.122;2023-02-13T04:23:08;4.80;80.40
1091;DHT22;534;48.704;9.122;2023-02-13T04:25:37;4.80;80.40
1091;DHT22;534;48.704;9.122;2023-02-13T04:28:04;4.80;80.00
1091;DHT22;534;48.704;9.122;2023-02-13T04:30:32;4.70;79.80
1091;DHT22;534;48.704;9.122;2023-02-13T04:32:59;4.70;79.90
1091;DHT22;534;48.704;9.122;2023-02-13T04:35:27;4.70;80.00
1091;DHT22;534;48.704;9.122;2023-02-13T04:37:53;4.60;79.90
1091;DHT22;534;48.704;9.122;2023-02-13T04:40:20;4.60;80.20
1091;DHT22;534;48.704;9.122;2023-02-13T04:42:47;4.60;80.00
1091;DHT22;534;48.704;9.122;2023-02-13T04:45:14;4.60;80.20
1091;DHT22;534;48.704;9.122;2023-02-13T04:47:41;4.60;79.80
1091;DHT22;534;48.704;9.122;2023-02-13T04:50:08;4.60;79.70
1091;DHT22;534;48.704;9.122;2023-02-13T04:52:36;4.50;79.70
1091;DHT22;534;48.704;9.122;2023-02-13T04:55:04;4.50;79.80
1091;DHT22;534;48.704;9.122;2023-02-13T04:57:30;4.50;80.20
1091;DHT22;534;48.704;9.122;2023-02-13T04:59:57;4.50;80.00
1091;DHT22;534;48.704;9.122;2023-02-13T05:02:24;4.50;80.00
1091;DHT22;534;48.704;9.122;2023-02-13T05:04:50;4.50;80.20
1091;DHT22;534;48.704;9.122;2023-02-13T05:07:17;4.50;80.20
1091;DHT22;534;48.704;9.122;2023-02-13T05:09:45;4.50;80.20
1091;DHT22;534;48.704;9.122;2023-02-13T05:12:12;4.50;80.10
1091;DHT22;534;48.704;9.122;2023-02-13T05:14:38;4.50;80.10
1091;DHT22;534;48.704;9.122;2023-02-13T05:17:05;4.60;80.00
1091;DHT22;534;48.704;9.122;2023-02-13T05:19:32;4.60;79.90
1091;DHT22;534;48.704;9.122;2023-02-13T05:21:58;4.60;79.80
1091;DHT22;534;48.704;9.122;2023-02-13T05:24:42;4.60;79.70
1091;DHT22;534;48.704;9.122;2023-02-13T05:27:10;4.50;79.80
1091;DHT22;534;48.704;9.122;2023-02-13T05:29:37;4.50;79.80
1091;DHT22;534;48.704;9.122;2023-02-13T05:32:04;4.50;79.70
1091;DHT22;534;48.704;9.122;2023-02-13T05:34:30;4.40;79.90
1091;DHT22;534;48.704;9.122;2023-02-13T05:36:57;4.40;80.10
1091;DHT22;534;48.704;9.122;2023-02-13T05:39:25;4.50;80.00
1091;DHT22;534;48.704;9.122;2023-02-13T05:41:51;4.50;79.90
1091;DHT22;534;48.704;9.122;2023-02-13T05:44:19;4.50;79.80
1091;DHT22;534;48.704;9.122;2023-02-13T05:46:46;4.50;79.60
1091;DHT22;534;48.704;9.122;2023-02-13T05:49:14;4.50;79.60
1091;DHT22;534;48.704;9.122;2023-02-13T05:51:41;4.50;79.60
1091;DHT22;534;48.704;9.122;2023-02-13T05:54:08;4.50;79.60
1091;DHT22;534;48.704;9.122;2023-02-13T05:56:34;4.50;79.60
1091;DHT22;534;48.704;9.122;2023-02-13T05:59:01;4.50;79.70
1091;DHT22;534;48.704;9.122;2023-02-13T06:01:29;4.50;79.70
1091;DHT22;534;48.704;9.122;2023-02-13T06:03:56;4.40;79.60
1091;DHT22;534;48.704;9.122;2023-02-13T06:06:22;4.40;79.60
1091;DHT22;534;48.704;9.122;2023-02-13T06:08:49;4.40;79.80
1091;DHT22;534;48.704;9.122;2023-02-13T06:11:16;4.40;79.70
1091;DHT22;534;48.704;9.122;2023-02-13T06:13:43;4.40;79.50
1091;DHT22;534;48.704;9.122;2023-02-13T06:16:10;4.40;79.60
1091;DHT22;534;48.704;9.122;2023-02-13T06:18:38;4.40;79.70
1091;DHT22;534;48.704;9.122;2023-02-13T06:21:06;4.40;80.00
1091;DHT22;534;48.704;9.122;2023-02-13T06:23:33;4.40;80.00
1091;DHT22;534;48.704;9.122;2023-02-13T06:26:02;4.40;79.90
1091;DHT22;534;48.704;9.122;2023-02-13T06:28:28;4.30;80.00
1091;DHT22;534;48.704;9.122;2023-02-13T06:30:55;4.30;79.90
1091;DHT22;534;48.704;9.122;2023-02-13T06:33:22;4.30;80.20
1091;DHT22;534;48.704;9.122;2023-02-13T06:35:50;4.30;80.10
1091;DHT22;534;48.704;9.122;2023-02-13T06:38:17;4.40;80.00
1091;DHT22;534;48.704;9.122;2023-02-13T06:40:44;4.40;80.10
1091;DHT22;534;48.704;9.122;2023-02-13T06:43:11;4.40;80.20
1091;DHT22;534;48.704;9.122;2023-02-13T06:45:38;4.40;80.20
1091;DHT22;534;48.704;9.122;2023-02-13T06:48:05;4.40;80.10
1091;DHT22;534;48.704;9.122;2023-02-13T06:50:31;4.50;80.40
1091;DHT22;534;48.704;9.122;2023-02-13T06:53:00;4.50;80.20
1091;DHT22;534;48.704;9.122;2023-02-13T06:55:27;4.50;80.30
1091;DHT22;534;48.704;9.122;2023-02-13T06:57:54;4.50;80.20
1091;DHT22;534;48.704;9.122;2023-02-13T07:00:21;4.60;79.90
1091;DHT22;534;48.704;9.122;2023-02-13T07:02:48;4.60;79.70
1091;DHT22;534;48.704;9.122;2023-02-13T07:05:15;4.60;79.90
1091;DHT22;534;48.704;9.122;2023-02-13T07:07:42;4.70;79.90
1091;DHT22;534;48.704;9.122;2023-02-13T07:10:12;5.00;80.30
1091;DHT22;534;48.704;9.122;2023-02-13T07:12:39;5.70;80.40
1091;DHT22;534;48.704;9.122;2023-02-13T07:15:06;6.90;77.10
1091;DHT22;534;48.704;9.122;2023-02-13T07:17:33;8.30;73.10
1091;DHT22;534;48.704;9.122;2023-02-13T07:20:00;9.70;69.10
1091;DHT22;534;48.704;9.122;2023-02-13T07:22:30;10.80;65.10
1091;DHT22;534;48.704;9.122;2023-02-13T07:24:57;11.60;62.80
1091;DHT22;534;48.704;9.122;2023-02-13T07:27:26;12.70;61.30
1091;DHT22;534;48.704;9.122;2023-02-13T07:29:54;14.00;57.70
1091;DHT22;534;48.704;9.122;2023-02-13T07:32:21;15.20;54.60
1091;DHT22;534;48.704;9.122;2023-02-13T07:34:47;16.20;51.60
1091;DHT22;534;48.704;9.122;2023-02-13T07:37:14;16.80;49.70
1091;DHT22;534;48.704;9.122;2023-02-13T07:39:40;16.10;49.80
1091;DHT22;534;48.704;9.122;2023-02-13T07:42:07;15.90;52.00
1091;DHT22;534;48.704;9.122;2023-02-13T07:44:35;16.10;50.50
1091;DHT22;534;48.704;9.122;2023-02-13T07:47:02;16.00;49.70
1091;DHT22;534;48.704;9.122;2023-02-13T07:49:28;14.70;52.40
1091;DHT22;534;48.704;9.122;2023-02-13T07:51:55;15.70;52.20
1091;DHT22;534;48.704;9.122;2023-02-13T07:54:23;16.20;50.40
1091;DHT22;534;48.704;9.122;2023-02-13T07:56:49;15.80;50.10
1091;DHT22;534;48.704;9.122;2023-02-13T07:59:16;15.30;51.90
1091;DHT22;534;48.704;9.122;2023-02-13T08:01:44;16.30;50.20
1091;DHT22;534;48.704;9.122;2023-02-13T08:04:11;16.00;49.80
1091;DHT22;534;48.704;9.122;2023-02-13T08:06:38;15.90;50.20
1091;DHT22;534;48.704;9.122;2023-02-13T08:09:05;16.50;48.90
1091;DHT22;534;48.704;9.122;2023-02-13T08:11:49;15.60;50.40
1091;DHT22;534;48.704;9.122;2023-02-13T08:14:20;15.80;50.60
1091;DHT22;534;48.704;9.122;2023-02-13T08:16:49;16.90;50.20
1091;DHT22;534;48.704;9.122;2023-02-13T08:19:16;18.10;46.60
1091;DHT22;534;48.704;9.122;2023-02-13T08:21:43;18.90;46.10
1091;DHT22;534;48.704;9.122;2023-02-13T08:24:10;19.80;43.80
1091;DHT22;534;48.704;9.122;2023-02-13T08:26:38;20.30;43.70
1091;DHT22;534;48.704;9.122;2023-02-13T08:29:05;21.40;41.70
1091;DHT22;534;48.704;9.122;2023-02-13T08:31:32;21.30;40.80
1091;DHT22;534;48.704;9.122;2023-02-13T08:34:00;21.60;41.20
1091;DHT22;534;48.704;9.122;2023-02-13T08:36:27;22.40;40.00
1091;DHT22;534;48.704;9.122;2023-02-13T08:38:54;22.40;39.60
1091;DHT22;534;48.704;9.122;2023-02-13T08:41:20;20.80;41.60
1091;DHT22;534;48.704;9.122;2023-02-13T08:43:48;18.30;45.00
1091;DHT22;534;48.704;9.122;2023-02-13T08:46:14;16.30;47.70
1091;DHT22;534;48.704;9.122;2023-02-13T08:48:42;13.90;52.90
1091;DHT22;534;48.704;9.122;2023-02-13T08:51:12;11.90;58.00
1091;DHT22;534;48.704;9.122;2023-02-13T08:53:39;10.40;62.30
1091;DHT22;534;48.704;9.122;2023-02-13T08:56:06;9.50;66.10
1091;DHT22;534;48.704;9.122;2023-02-13T08:58:33;8.60;69.30
1091;DHT22;534;48.704;9.122;2023-02-13T09:01:03;8.00;70.20
1091;DHT22;534;48.704;9.122;2023-02-13T09:03:30;7.20;73.60
1091;DHT22;534;48.704;9.122;2023-02-13T09:05:58;7.00;74.90
1091;DHT22;534;48.704;9.122;2023-02-13T09:08:26;6.80;75.20
1091;DHT22;534;48.704;9.122;2023-02-13T09:10:57;5.90;77.00
1091;DHT22;534;48.704;9.122;2023-02-13T09:13:24;5.70;79.10
1091;DHT22;534;48.704;9.122;2023-02-13T09:15:50;5.70;79.60
1091;DHT22;534;48.704;9.122;2023-02-13T09:18:17;5.50;80.20
1091;DHT22;534;48.704;9.122;2023-02-13T09:20:44;5.70;80.50
1091;DHT22;534;48.704;9.122;2023-02-13T09:23:10;5.70;80.20
1091;DHT22;534;48.704;9.122;2023-02-13T09:25:38;5.50;80.20
1091;DHT22;534;48.704;9.122;2023-02-13T09:28:05;5.20;80.90
1091;DHT22;534;48.704;9.122;2023-02-13T09:30:32;5.00;81.80
1091;DHT22;534;48.704;9.122;2023-02-13T09:32:59;5.10;81.70
1091;DHT22;534;48.704;9.122;2023-02-13T09:35:26;5.10;81.60
1091;DHT22;534;48.704;9.122;2023-02-13T09:37:53;5.20;82.30
1091;DHT22;534;48.704;9.122;2023-02-13T09:40:24;5.40;81.80
1091;DHT22;534;48.704;9.122;2023-02-13T09:42:58;5.50;81.10
1091;DHT22;534;48.704;9.122;2023-02-13T09:45:29;5.40;81.00
1091;DHT22;534;48.704;9.122;2023-02-13T09:47:55;5.40;81.80
1091;DHT22;534;48.704;9.122;2023-02-13T09:50:25;5.50;81.50
1091;DHT22;534;48.704;9.122;2023-02-13T09:52:53;5.40;81.80
1091;DHT22;534;48.704;9.122;2023-02-13T09:55:23;5.40;82.10
1091;DHT22;534;48.704;9.122;2023-02-13T09:57:57;5.40;82.20
1091;DHT22;534;48.704;9.122;2023-02-13T10:00:30;5.50;82.50
1091;DHT22;534;48.704;9.122;2023-02-13T10:03:25;5.60;82.00
1091;DHT22;534;48.704;9.122;2023-02-13T10:06:01;5.80;81.30
1091;DHT22;534;48.704;9.122;2023-02-13T10:08:48;6.10;80.50
1091;DHT22;534;48.704;9.122;2023-02-13T10:11:32;6.30;79.00
1091;DHT22;534;48.704;9.122;2023-02-13T10:14:12;6.40;78.50
1091;DHT22;534;48.704;9.122;2023-02-13T10:16:44;6.40;79.60
1091;DHT22;534;48.704;9.122;2023-02-13T10:19:21;6.50;78.70
1091;DHT22;534;48.704;9.122;2023-02-13T10:21:54;6.70;77.90
1091;DHT22;534;48.704;9.122;2023-02-13T10:24:29;6.60;77.80
1091;DHT22;534;48.704;9.122;2023-02-13T10:27:01;6.90;77.70
1091;DHT22;534;48.704;9.122;2023-02-13T10:29:37;6.90;77.70
1091;DHT22;534;48.704;9.122;2023-02-13T10:32:26;6.80;76.80
1091;DHT22;534;48.704;9.122;2023-02-13T10:34:57;6.90;76.80
1091;DHT22;534;48.704;9.122;2023-02-13T10:37:27;7.00;76.60
1091;DHT22;534;48.704;9.122;2023-02-13T10:39:54;7.10;76.30
1091;DHT22;534;48.704;9.122;2023-02-13T10:42:24;7.10;76.30
1091;DHT22;534;48.704;9.122;2023-02-13T10:45:02;7.10;76.20
1091;DHT22;534;48.704;9.122;2023-02-13T10:47:43;7.00;76.50
1091;DHT22;534;48.704;9.122;2023-02-13T10:50:22;6.90;76.90
1091;DHT22;534;48.704;9.122;2023-02-13T10:52:56;7.10;76.30
1091;DHT22;534;48.704;9.122;2023-02-13T10:58:23;7.40;76.10
1091;DHT22;534;48.704;9.122;2023-02-13T11:00:55;7.40;75.70
1091;DHT22;534;48.704;9.122;2023-02-13T11:03:24;7.30;75.20
1091;DHT22;534;48.704;9.122;2023-02-13T11:05:52;7.40;75.80
1091;DHT22;534;48.704;9.122;2023-02-13T11:08:22;7.50;75.30
1091;DHT22;534;48.704;9.122;2023-02-13T11:10:49;7.50;75.80
1091;DHT22;534;48.704;9.122;2023-02-13T11:13:18;7.70;75.20
1091;DHT22;534;48.704;9.122;2023-02-13T11:15:58;7.90;75.10
1091;DHT22;534;48.704;9.122;2023-02-13T11:18:27;8.00;73.80
1091;DHT22;534;48.704;9.122;2023-02-13T11:20:59;8.10;74.40
1091;DHT22;534;48.704;9.122;2023-02-13T11:23:35;8.20;74.60
1091;DHT22;534;48.704;9.122;2023-02-13T11:26:04;8.30;73.40
1091;DHT22;534;48.704;9.122;2023-02-13T11:28:36;8.30;73.80
1091;DHT22;534;48.704;9.122;2023-02-13T11:31:13;8.30;73.50
1091;DHT22;534;48.704;9.122;2023-02-13T11:33:43;8.40;72.70
1091;DHT22;534;48.704;9.122;2023-02-13T11:36:14;8.40;73.60
1091;DHT22;534;48.704;9.122;2023-02-13T11:38:41;8.50;72.70
1091;DHT22;534;48.704;9.122;2023-02-13T11:41:09;8.50;72.90
1091;DHT22;534;48.704;9.122;2023-02-13T11:43:43;8.50;72.60
1091;DHT22;534;48.704;9.122;2023-02-13T11:46:17;8.50;73.20
1091;DHT22;534;48.704;9.122;2023-02-13T11:48:59;8.60;72.80
1091;DHT22;534;48.704;9.122;2023-02-13T11:51:37;8.70;72.40
1091;DHT22;534;48.704;9.122;2023-02-13T11:54:04;8.90;71.90
1091;DHT22;534;48.704;9.122;2023-02-13T11:56:47;9.40;70.80
1091;DHT22;534;48.704;9.122;2023-02-13T11:59:14;9.50;69.80
1091;DHT22;534;48.704;9.122;2023-02-13T12:01:42;9.50;69.90
1091;DHT22;534;48.704;9.122;2023-02-13T12:04:15;9.40;69.50
1091;DHT22;534;48.704;9.122;2023-02-13T12:06:59;9.50;68.80
1091;DHT22;534;48.704;9.122;2023-02-13T12:09:26;9.50;68.70
1091;DHT22;534;48.704;9.122;2023-02-13T12:11:56;9.50;68.90
1091;DHT22;534;48.704;9.122;2023-02-13T12:14:26;9.40;68.60
1091;DHT22;534;48.704;9.122;2023-02-13T12:16:59;9.30;68.70
1091;DHT22;534;48.704;9.122;2023-02-13T12:19:30;9.20;69.00
1091;DHT22;534;48.704;9.122;2023-02-13T12:22:13;9.30;69.80
1091;DHT22;534;48.704;9.122;2023-02-13T12:27:45;9.60;68.80
1091;DHT22;534;48.704;9.122;2023-02-13T12:36:37;9.70;68.00
1091;DHT22;534;48.704;9.122;2023-02-13T12:39:16;10.00;67.60
1091;DHT22;534;48.704;9.122;2023-02-13T12:41:50;10.10;66.40
1091;DHT22;534;48.704;9.122;2023-02-13T12:44:43;10.20;65.80
1091;DHT22;534;48.704;9.122;2023-02-13T12:47:15;10.30;66.20
1091;DHT22;534;48.704;9.122;2023-02-13T12:50:25;10.30;66.10
1091;DHT22;534;48.704;9.122;2023-02-13T12:53:10;10.40;66.70
1091;DHT22;534;48.704;9.122;2023-02-13T12:55:55;10.70;66.10
1091;DHT22;534;48.704;9.122;2023-02-13T12:58:39;10.80;65.70
1091;DHT22;534;48.704;9.122;2023-02-13T13:01:18;11.00;65.40
1091;DHT22;534;48.704;9.122;2023-02-13T13:03:51;11.30;64.80
1091;DHT22;534;48.704;9.122;2023-02-13T13:06:42;11.50;64.40
1091;DHT22;534;48.704;9.122;2023-02-13T13:09:41;11.50;64.00
1091;DHT22;534;48.704;9.122;2023-02-13T13:12:19;11.40;64.40
1091;DHT22;534;48.704;9.122;2023-02-13T13:14:54;11.50;64.40
1091;DHT22;534;48.704;9.122;2023-02-13T13:17:35;11.70;63.60
1091;DHT22;534;48.704;9.122;2023-02-13T13:20:41;11.80;63.20
1091;DHT22;534;48.704;9.122;2023-02-13T13:23:20;12.20;62.50
1091;DHT22;534;48.704;9.122;2023-02-13T13:25:55;12.40;62.20
1091;DHT22;534;48.704;9.122;2023-02-13T13:28:25;12.90;59.80
1091;DHT22;534;48.704;9.122;2023-02-13T13:30:54;13.30;58.60
1091;DHT22;534;48.704;9.122;2023-02-13T13:33:24;13.80;57.80
1091;DHT22;534;48.704;9.122;2023-02-13T13:36:00;14.60;55.80
1091;DHT22;534;48.704;9.122;2023-02-13T13:38:38;15.60;53.70
1091;DHT22;534;48.704;9.122;2023-02-13T13:41:11;17.20;50.70
1091;DHT22;534;48.704;9.122;2023-02-13T13:43:55;19.40;47.10
1091;DHT22;534;48.704;9.122;2023-02-13T13:46:33;20.70;43.70
1091;DHT22;534;48.704;9.122;2023-02-13T13:49:13;21.50;42.20
1091;DHT22;534;48.704;9.122;2023-02-13T13:51:47;22.70;40.30
1091;DHT22;534;48.704;9.122;2023-02-13T13:54:22;23.60;37.90
1091;DHT22;534;48.704;9.122;2023-02-13T13:57:05;24.00;38.10
1091;DHT22;534;48.704;9.122;2023-02-13T13:59:55;25.10;36.60
1091;DHT22;534;48.704;9.122;2023-02-13T14:02:36;25.30;36.60
1091;DHT22;534;48.704;9.122;2023-02-13T14:05:27;25.40;36.20
1091;DHT22;534;48.704;9.122;2023-02-13T14:07:56;25.20;36.20
1091;DHT22;534;48.704;9.122;2023-02-13T14:10:59;24.80;36.70
1091;DHT22;534;48.704;9.122;2023-02-13T14:13:31;24.70;37.10
1091;DHT22;534;48.704;9.122;2023-02-13T14:15:58;23.80;38.20
1091;DHT22;534;48.704;9.122;2023-02-13T14:18:25;23.90;38.40
1091;DHT22;534;48.704;9.122;2023-02-13T14:20:54;24.40;37.70
1091;DHT22;534;48.704;9.122;2023-02-13T14:23:29;24.60;36.90
1091;DHT22;534;48.704;9.122;2023-02-13T14:26:20;25.10;37.10
1091;DHT22;534;48.704;9.122;2023-02-13T14:28:57;26.20;35.60
1091;DHT22;534;48.704;9.122;2023-02-13T14:31:26;26.50;35.00
1091;DHT22;534;48.704;9.122;2023-02-13T14:33:55;26.00;35.70
1091;DHT22;534;48.704;9.122;2023-02-13T14:36:26;25.70;36.50
1091;DHT22;534;48.704;9.122;2023-02-13T14:39:00;25.70;36.20
1091;DHT22;534;48.704;9.122;2023-02-13T14:41:43;25.10;37.30
1091;DHT22;534;48.704;9.122;2023-02-13T14:44:15;25.20;37.00
1091;DHT22;534;48.704;9.122;2023-02-13T14:46:44;25.60;36.50
1091;DHT22;534;48.704;9.122;2023-02-13T14:49:16;24.60;38.00
1091;DHT22;534;48.704;9.122;2023-02-13T14:51:45;24.80;38.00
1091;DHT22;534;48.704;9.122;2023-02-13T14:54:19;23.40;39.40
1091;DHT22;534;48.704;9.122;2023-02-13T14:56:50;21.90;41.70
1091;DHT22;534;48.704;9.122;2023-02-13T14:59:20;20.60;43.90
1091;DHT22;534;48.704;9.122;2023-02-13T15:01:52;19.00;46.60
1091;DHT22;534;48.704;9.122;2023-02-13T15:04:28;17.70;49.20
1091;DHT22;534;48.704;9.122;2023-02-13T15:06:56;17.50;50.00
1091;DHT22;534;48.704;9.122;2023-02-13T15:09:31;17.50;50.00
1091;DHT22;534;48.704;9.122;2023-02-13T15:12:01;17.90;49.60
1091;DHT22;534;48.704;9.122;2023-02-13T15:14:32;17.30;49.90
1091;DHT22;534;48.704;9.122;2023-02-13T15:17:04;16.60;51.40
1091;DHT22;534;48.704;9.122;2023-02-13T15:19:33;16.30;52.10
1091;DHT22;534;48.704;9.122;2023-02-13T15:22:03;16.30;52.00
1091;DHT22;534;48.704;9.122;2023-02-13T15:24:35;16.00;52.50
1091;DHT22;534;48.704;9.122;2023-02-13T15:27:05;15.60;53.50
1091;DHT22;534;48.704;9.122;2023-02-13T15:29:32;15.20;54.50
1091;DHT22;534;48.704;9.122;2023-02-13T15:31:59;14.70;55.80
1091;DHT22;534;48.704;9.122;2023-02-13T15:34:28;14.50;56.60
1091;DHT22;534;48.704;9.122;2023-02-13T15:36:56;14.00;57.30
1091;DHT22;534;48.704;9.122;2023-02-13T15:39:25;13.60;58.50
1091;DHT22;534;48.704;9.122;2023-02-13T15:41:54;12.70;60.60
1091;DHT22;534;48.704;9.122;2023-02-13T15:44:26;12.20;62.10
1091;DHT22;534;48.704;9.122;2023-02-13T15:46:58;11.60;63.60
1091;DHT22;534;48.704;9.122;2023-02-13T15:49:31;11.00;65.20
1091;DHT22;534;48.704;9.122;2023-02-13T15:52:05;10.80;66.20
1091;DHT22;534;48.704;9.122;2023-02-13T15:54:33;10.60;66.80
1091;DHT22;534;48.704;9.122;2023-02-13T15:57:03;10.30;67.40
1091;DHT22;534;48.704;9.122;2023-02-13T15:59:35;10.30;67.50
1091;DHT22;534;48.704;9.122;2023-02-13T16:02:03;10.20;67.70
1091;DHT22;534;48.704;9.122;2023-02-13T16:04:31;10.10;68.30
1091;DHT22;534;48.704;9.122;2023-02-13T16:06:59;9.90;68.90
1091;DHT22;534;48.704;9.122;2023-02-13T16:09:30;9.90;69.30
1091;DHT22;534;48.704;9.122;2023-02-13T16:12:02;9.80;69.70
1091;DHT22;534;48.704;9.122;2023-02-13T16:14:46;9.90;69.50
1091;DHT22;534;48.704;9.122;2023-02-13T16:17:16;9.80;68.90
1091;DHT22;534;48.704;9.122;2023-02-13T16:19:52;9.60;68.90
1091;DHT22;534;48.704;9.122;2023-02-13T16:22:28;9.60;69.00
1091;DHT22;534;48.704;9.122;2023-02-13T16:25:09;9.50;69.70
1091;DHT22;534;48.704;9.122;2023-02-13T16:27:41;9.40;70.10
1091;DHT22;534;48.704;9.122;2023-02-13T16:30:23;9.20;70.80
1091;DHT22;534;48.704;9.122;2023-02-13T16:32:50;8.80;72.40
1091;DHT22;534;48.704;9.122;2023-02-13T16:35:26;8.70;72.60
1091;DHT22;534;48.704;9.122;2023-02-13T16:37:55;8.30;73.40
1091;DHT22;534;48.704;9.122;2023-02-13T16:40:36;8.20;73.70
1091;DHT22;534;48.704;9.122;2023-02-13T16:46:25;8.30;73.70
1091;DHT22;534;48.704;9.122;2023-02-13T16:49:10;8.30;73.50
1091;DHT22;534;48.704;9.122;2023-02-13T16:51:40;8.50;73.10
1091;DHT22;534;48.704;9.122;2023-02-13T16:54:16;8.50;72.50
1091;DHT22;534;48.704;9.122;2023-02-13T16:56:45;8.30;73.20
1091;DHT22;534;48.704;9.122;2023-02-13T16:59:22;8.10;74.00
1091;DHT22;534;48.704;9.122;2023-02-13T17:02:07;7.80;74.60
1091;DHT22;534;48.704;9.122;2023-02-13T17:04:36;7.60;75.30
1091;DHT22;534;48.704;9.122;2023-02-13T17:07:11;7.60;75.30
1091;DHT22;534;48.704;9.122;2023-02-13T17:09:38;7.60;75.20
1091;DHT22;534;48.704;9.122;2023-02-13T17:12:11;7.40;75.70
1091;DHT22;534;48.704;9.122;2023-02-13T17:14:38;7.30;76.20
1091;DHT22;534;48.704;9.122;2023-02-13T17:17:10;7.30;76.00
1091;DHT22;534;48.704;9.122;2023-02-13T17:19:37;7.40;75.60
1091;DHT22;534;48.704;9.122;2023-02-13T17:22:04;7.60;75.20
1091;DHT22;534;48.704;9.122;2023-02-13T17:24:31;7.60;74.80
1091;DHT22;534;48.704;9.122;2023-02-13T17:26:58;7.50;74.60
1091;DHT22;534;48.704;9.122;2023-02-13T17:29:25;7.50;74.70
1091;DHT22;534;48.704;9.122;2023-02-13T17:31:54;7.20;75.50
1091;DHT22;534;48.704;9.122;2023-02-13T17:34:23;7.30;75.30
1091;DHT22;534;48.704;9.122;2023-02-13T17:36:49;7.40;75.10
1091;DHT22;534;48.704;9.122;2023-02-13T17:39:16;7.50;74.70
1091;DHT22;534;48.704;9.122;2023-02-13T17:41:43;7.60;74.40
1091;DHT22;534;48.704;9.122;2023-02-13T17:44:11;7.70;74.00
1091;DHT22;534;48.704;9.122;2023-02-13T17:46:38;7.70;73.90
1091;DHT22;534;48.704;9.122;2023-02-13T17:49:05;7.70;73.50
1091;DHT22;534;48.704;9.122;2023-02-13T17:51:34;7.20;75.00
1091;DHT22;534;48.704;9.122;2023-02-13T17:54:03;7.10;75.20
1091;DHT22;534;48.704;9.122;2023-02-13T17:56:30;6.80;76.30
1091;DHT22;534;48.704;9.122;2023-02-13T17:58:56;6.70;76.80
1091;DHT22;534;48.704;9.122;2023-02-13T18:01:23;6.60;77.00
1091;DHT22;534;48.704;9.122;2023-02-13T18:03:50;6.60;77.10
1091;DHT22;534;48.704;9.122;2023-02-13T18:06:16;6.40;77.50
1091;DHT22;534;48.704;9.122;2023-02-13T18:08:45;6.30;77.90
1091;DHT22;534;48.704;9.122;2023-02-13T18:11:11;6.40;77.70
1091;DHT22;534;48.704;9.122;2023-02-13T18:13:38;6.60;77.10
1091;DHT22;534;48.704;9.122;2023-02-13T18:16:10;6.70;76.50
1091;DHT22;534;48.704;9.122;2023-02-13T18:18:37;6.80;76.30
1091;DHT22;534;48.704;9.122;2023-02-13T18:21:04;7.00;76.00
1091;DHT22;534;48.704;9.122;2023-02-13T18:23:31;7.00;75.40
1091;DHT22;534;48.704;9.122;2023-02-13T18:26:07;6.80;75.60
1091;DHT22;534;48.704;9.122;2023-02-13T18:28:33;6.90;75.50
1091;DHT22;534;48.704;9.122;2023-02-13T18:31:00;6.80;75.70
1091;DHT22;534;48.704;9.122;2023-02-13T18:33:27;6.80;75.50
1091;DHT22;534;48.704;9.122;2023-02-13T18:35:58;6.80;75.10
1091;DHT22;534;48.704;9.122;2023-02-13T18:38:25;6.80;75.20
1091;DHT22;534;48.704;9.122;2023-02-13T18:40:52;6.80;75.10
1091;DHT22;534;48.704;9.122;2023-02-13T18:43:20;6.50;75.60
1091;DHT22;534;48.704;9.122;2023-02-13T18:45:47;6.30;76.60
1091;DHT22;534;48.704;9.122;2023-02-13T18:48:14;6.40;76.10
1091;DHT22;534;48.704;9.122;2023-02-13T18:50:41;6.20;76.50
1091;DHT22;534;48.704;9.122;2023-02-13T18:53:08;6.00;77.30
1091;DHT22;534;48.704;9.122;2023-02-13T18:55:35;6.00;77.60
1091;DHT22;534;48.704;9.122;2023-02-13T18:58:01;6.00;77.50
1091;DHT22;534;48.704;9.122;2023-02-13T19:00:29;6.00;77.50
1091;DHT22;534;48.704;9.122;2023-02-13T19:02:58;5.90;77.60
1091;DHT22;534;48.704;9.122;2023-02-13T19:05:25;6.00;77.40
1091;DHT22;534;48.704;9.122;2023-02-13T19:07:52;6.10;76.70
1091;DHT22;534;48.704;9.122;2023-02-13T19:10:18;6.20;76.30
1091;DHT22;534;48.704;9.122;2023-02-13T19:12:45;6.20;76.20
1091;DHT22;534;48.704;9.122;2023-02-13T19:15:12;6.20;76.10
1091;DHT22;534;48.704;9.122;2023-02-13T19:17:40;6.10;76.10
1091;DHT22;534;48.704;9.122;2023-02-13T19:20:07;6.00;76.70
1091;DHT22;534;48.704;9.122;2023-02-13T19:22:35;5.80;77.30
1091;DHT22;534;48.704;9.122;2023-02-13T19:25:02;5.80;77.30
1091;DHT22;534;48.704;9.122;2023-02-13T19:27:29;5.80;77.30
1091;DHT22;534;48.704;9.122;2023-02-13T19:29:55;5.80;77.10
1091;DHT22;534;48.704;9.122;2023-02-13T19:32:22;5.90;76.50
1091;DHT22;534;48.704;9.122;2023-02-13T19:34:50;5.90;76.10
1091;DHT22;534;48.704;9.122;2023-02-13T19:37:17;5.90;76.00
1091;DHT22;534;48.704;9.122;2023-02-13T19:39:44;5.90;75.90
1091;DHT22;534;48.704;9.122;2023-02-13T19:42:10;6.00;75.90
1091;DHT22;534;48.704;9.122;2023-02-13T19:44:37;6.00;75.60
1091;DHT22;534;48.704;9.122;2023-02-13T19:47:04;6.00;75.10
1091;DHT22;534;48.704;9.122;2023-02-13T19:49:30;5.90;75.20
1091;DHT22;534;48.704;9.122;2023-02-13T19:51:58;5.90;74.80
1091;DHT22;534;48.704;9.122;2023-02-13T19:54:25;5.90;74.80
1091;DHT22;534;48.704;9.122;2023-02-13T19:56:52;5.90;74.90
1091;DHT22;534;48.704;9.122;2023-02-13T19:59:24;5.90;74.90
1091;DHT22;534;48.704;9.122;2023-02-13T20:01:51;5.90;75.00
1091;DHT22;534;48.704;9.122;2023-02-13T20:04:18;5.80;75.10
1091;DHT22;534;48.704;9.122;2023-02-13T20:06:44;5.80;75.30
1091;DHT22;534;48.704;9.122;2023-02-13T20:09:13;5.70;75.80
1091;DHT22;534;48.704;9.122;2023-02-13T20:11:40;5.70;76.10
1091;DHT22;534;48.704;9.122;2023-02-13T20:14:09;5.60;76.60
1091;DHT22;534;48.704;9.122;2023-02-13T20:16:39;5.50;77.10
1091;DHT22;534;48.704;9.122;2023-02-13T20:19:08;5.30;77.70
1091;DHT22;534;48.704;9.122;2023-02-13T20:21:36;5.30;77.90
1091;DHT22;534;48.704;9.122;2023-02-13T20:24:04;5.30;78.10
1091;DHT22;534;48.704;9.122;2023-02-13T20:26:32;5.30;77.90
1091;DHT22;534;48.704;9.122;2023-02-13T20:28:59;5.30;77.90
1091;DHT22;534;48.704;9.122;2023-02-13T20:31:27;5.40;77.70
1091;DHT22;534;48.704;9.122;2023-02-13T20:33:55;5.40;77.70
1091;DHT22;534;48.704;9.122;2023-02-13T20:36:24;5.40;77.70
1091;DHT22;534;48.704;9.122;2023-02-13T20:38:52;5.40;77.90
1091;DHT22;534;48.704;9.122;2023-02-13T20:41:21;5.50;77.80
1091;DHT22;534;48.704;9.122;2023-02-13T20:43:49;5.50;76.90
1091;DHT22;534;48.704;9.122;2023-02-13T20:46:16;5.50;76.50
1091;DHT22;534;48.704;9.122;2023-02-13T20:48:45;5.20;76.10
1091;DHT22;534;48.704;9.122;2023-02-13T20:51:13;5.10;76.60
1091;DHT22;534;48.704;9.122;2023-02-13T20:53:41;5.00;76.60
1091;DHT22;534;48.704;9.122;2023-02-13T20:56:09;5.10;76.50
1091;DHT22;534;48.704;9.122;2023-02-13T20:58:37;5.00;76.20
1091;DHT22;534;48.704;9.122;2023-02-13T21:01:11;5.00;76.10
1091;DHT22;534;48.704;9.122;2023-02-13T21:03:38;5.00;76.20
1091;DHT22;534;48.704;9.122;2023-02-13T21:06:06;4.90;76.90
1091;DHT22;534;48.704;9.122;2023-02-13T21:08:33;4.90;77.70